createdAt,value
2022-10-26T00:01:25.597Z,97.48
2022-10-26T00:03:57.262Z,97.37
2022-10-26T00:06:28.901Z,97.48
2022-10-26T00:08:59.338Z,97.61
2022-10-26T00:11:27.735Z,98.21
2022-10-26T00:13:56.060Z,98.09
2022-10-26T00:16:28.131Z,97.70
2022-10-26T00:18:56.739Z,96.91
2022-10-26T00:21:25.119Z,96.29
2022-10-26T00:23:56.348Z,96.20
2022-10-26T00:26:26.108Z,96.22
2022-10-26T00:28:55.742Z,95.93
2022-10-26T00:31:24.499Z,95.88
2022-10-26T00:33:54.824Z,95.21
2022-10-26T00:36:23.623Z,94.80
2022-10-26T00:38:53.640Z,94.98
2022-10-26T00:41:26.709Z,95.16
2022-10-26T00:43:55.748Z,95.02
2022-10-26T00:46:27.857Z,94.59
2022-10-26T00:49:02.352Z,94.25
2022-10-26T00:51:33.894Z,93.31
2022-10-26T00:54:05.519Z,93.17
2022-10-26T00:56:36.979Z,92.76
2022-10-26T00:59:09.492Z,92.59
2022-10-26T01:01:42.932Z,93.24
2022-10-26T01:04:12.172Z,92.84
2022-10-26T01:06:41.447Z,92.98
2022-10-26T01:09:10.575Z,93.01
2022-10-26T01:11:40.120Z,93.49
2022-10-26T01:14:10.859Z,93.26
2022-10-26T01:16:49.485Z,93.75
2022-10-26T01:20:01.994Z,93.04
2022-10-26T01:22:35.673Z,93.25
2022-10-26T01:25:16.015Z,93.34
2022-10-26T01:27:48.760Z,94.55
2022-10-26T01:30:22.819Z,95.46
2022-10-26T01:33:12.049Z,95.44
2022-10-26T01:35:51.256Z,97.29
2022-10-26T01:38:29.066Z,98.33
2022-10-26T01:41:06.060Z,99.13
2022-10-26T01:43:38.798Z,98.63
2022-10-26T01:46:10.859Z,98.76
2022-10-26T01:48:41.635Z,99.51
2022-10-26T01:51:12.449Z,99.00
2022-10-26T01:53:46.764Z,98.51
2022-10-26T01:56:21.100Z,97.64
2022-10-26T01:59:14.935Z,97.22
2022-10-26T02:02:28.855Z,97.25
2022-10-26T02:05:34.057Z,97.62
2022-10-26T02:08:33.429Z,98.28
2022-10-26T02:11:13.684Z,98.85
2022-10-26T02:13:48.732Z,99.02
2022-10-26T02:16:23.936Z,99.25
2022-10-26T02:19:02.497Z,99.52
2022-10-26T02:21:38.255Z,99.45
2022-10-26T02:24:09.900Z,99.06
2022-10-26T02:26:39.410Z,98.47
2022-10-26T02:29:14.920Z,98.05
2022-10-26T02:31:45.147Z,98.07
2022-10-26T02:34:20.071Z,98.03
2022-10-26T02:36:50.921Z,97.93
2022-10-26T02:39:20.757Z,98.26
2022-10-26T02:41:50.157Z,98.09
2022-10-26T02:44:24.914Z,98.55
2022-10-26T02:46:54.169Z,97.84
2022-10-26T02:49:23.848Z,97.65
2022-10-26T02:52:02.560Z,97.63
2022-10-26T02:54:37.927Z,97.41
2022-10-26T02:57:12.665Z,97.34
2022-10-26T02:59:44.982Z,97.34
2022-10-26T03:02:14.300Z,97.52
2022-10-26T03:04:43.907Z,97.93
2022-10-26T03:07:12.184Z,97.86
2022-10-26T03:09:40.448Z,97.76
2022-10-26T03:12:08.763Z,98.13
2022-10-26T03:14:36.941Z,97.35
2022-10-26T03:17:05.200Z,97.86
2022-10-26T03:19:33.446Z,98.38
2022-10-26T03:22:03.058Z,99.32
2022-10-26T03:24:31.284Z,99.37
2022-10-26T03:27:02.060Z,99.44
2022-10-26T03:29:30.822Z,99.37
2022-10-26T03:31:59.147Z,99.15
2022-10-26T03:34:27.406Z,98.65
2022-10-26T03:36:55.649Z,98.87
2022-10-26T03:39:25.278Z,99.09
2022-10-26T03:44:26.719Z,98.49
2022-10-26T03:46:54.957Z,97.92
2022-10-26T03:49:23.221Z,97.82
2022-10-26T03:51:51.448Z,97.26
2022-10-26T03:54:19.742Z,96.65
2022-10-26T03:56:52.654Z,95.62
2022-10-26T03:59:23.329Z,95.19
2022-10-26T04:01:54.117Z,94.63
2022-10-26T04:04:26.539Z,94.55
2022-10-26T04:06:54.782Z,94.42
2022-10-26T04:09:22.977Z,94.08
2022-10-26T04:11:52.679Z,94.37
2022-10-26T04:14:20.887Z,94.64
2022-10-26T04:16:49.112Z,94.38
2022-10-26T04:19:17.386Z,94.41
2022-10-26T04:21:45.581Z,94.55
2022-10-26T04:24:14.063Z,94.46
2022-10-26T04:26:42.377Z,94.25
2022-10-26T04:29:13.740Z,94.75
2022-10-26T04:34:12.998Z,95.56
2022-10-26T04:36:41.451Z,96.11
2022-10-26T04:39:09.903Z,96.39
2022-10-26T04:41:38.264Z,96.12
2022-10-26T04:44:06.739Z,96.53
2022-10-26T04:46:36.333Z,96.89
2022-10-26T04:49:04.632Z,97.05
2022-10-26T04:51:32.815Z,96.97
2022-10-26T04:54:01.704Z,97.00
2022-10-26T04:56:30.057Z,97.07
2022-10-26T04:58:58.279Z,97.18
2022-10-26T05:01:26.657Z,97.04
2022-10-26T05:03:56.351Z,96.94
2022-10-26T05:06:24.832Z,97.53
2022-10-26T05:08:53.022Z,97.92
2022-10-26T05:11:21.326Z,97.54
2022-10-26T05:13:49.679Z,97.25
2022-10-26T05:16:17.926Z,97.06
2022-10-26T05:18:48.969Z,96.67
2022-10-26T05:21:20.263Z,96.29
2022-10-26T05:23:52.535Z,95.89
2022-10-26T05:26:20.846Z,95.64
2022-10-26T05:28:49.373Z,95.00
2022-10-26T05:31:17.615Z,95.35
2022-10-26T05:33:45.869Z,95.35
2022-10-26T05:36:14.096Z,95.26
2022-10-26T05:38:43.640Z,95.03
2022-10-26T05:41:11.959Z,95.10
2022-10-26T05:43:40.529Z,95.08
2022-10-26T05:46:08.793Z,95.01
2022-10-26T05:48:37.026Z,95.01
2022-10-26T05:51:05.631Z,94.63
2022-10-26T05:53:34.173Z,94.75
2022-10-26T05:56:06.170Z,94.95
2022-10-26T05:58:39.228Z,95.49
2022-10-26T06:01:23.405Z,95.19
2022-10-26T06:04:12.654Z,94.79
2022-10-26T06:06:46.239Z,94.34
2022-10-26T06:09:16.232Z,93.94
2022-10-26T06:11:46.808Z,93.93
2022-10-26T06:14:15.945Z,93.98
2022-10-26T06:17:03.441Z,94.44
2022-10-26T06:19:50.622Z,94.67
2022-10-26T06:22:38.170Z,94.47
2022-10-26T06:25:21.163Z,94.19
2022-10-26T06:27:59.931Z,94.55
2022-10-26T06:30:28.224Z,94.32
2022-10-26T06:33:05.952Z,94.79
2022-10-26T06:35:55.875Z,94.66
2022-10-26T06:38:26.529Z,94.33
2022-10-26T06:40:57.156Z,93.34
2022-10-26T06:43:30.571Z,92.85
2022-10-26T06:46:09.701Z,93.14
2022-10-26T06:48:52.079Z,93.24
2022-10-26T06:51:21.681Z,93.18
2022-10-26T06:53:59.549Z,93.73
2022-10-26T06:56:28.415Z,94.49
2022-10-26T06:59:07.643Z,94.60
2022-10-26T07:01:36.026Z,94.64
2022-10-26T07:04:04.436Z,93.78
2022-10-26T07:06:34.431Z,92.83
2022-10-26T07:09:05.278Z,91.77
2022-10-26T07:11:33.500Z,91.12
2022-10-26T07:14:03.093Z,90.51
2022-10-26T07:16:32.078Z,89.99
2022-10-26T07:19:00.382Z,89.56
2022-10-26T07:21:29.624Z,88.62
2022-10-26T07:23:57.934Z,88.12
2022-10-26T07:26:27.378Z,87.08
2022-10-26T07:28:55.659Z,86.47
2022-10-26T07:31:26.253Z,85.38
2022-10-26T07:33:55.464Z,84.25
2022-10-26T07:36:23.855Z,83.53
2022-10-26T07:38:54.032Z,82.58
2022-10-26T07:41:22.332Z,80.94
2022-10-26T07:43:50.844Z,79.14
2022-10-26T07:46:19.265Z,77.28
2022-10-26T07:48:48.912Z,75.87
2022-10-26T07:51:17.198Z,74.85
2022-10-26T07:53:45.513Z,73.77
2022-10-26T07:56:14.183Z,72.63
2022-10-26T07:58:43.009Z,71.60
2022-10-26T08:01:13.683Z,70.60
2022-10-26T08:03:42.649Z,70.13
2022-10-26T08:06:12.490Z,70.06
2022-10-26T08:08:44.865Z,69.03
2022-10-26T08:11:16.018Z,69.38
2022-10-26T08:13:44.462Z,69.26
2022-10-26T08:16:13.511Z,70.41
2022-10-26T08:18:41.794Z,70.95
2022-10-26T08:21:15.571Z,70.43
2022-10-26T08:23:49.839Z,71.25
2022-10-26T08:26:18.560Z,70.90
2022-10-26T08:28:51.023Z,70.73
2022-10-26T08:31:19.332Z,70.06
2022-10-26T08:33:47.537Z,69.71
2022-10-26T08:36:23.236Z,68.21
2022-10-26T08:38:52.407Z,67.81
2022-10-26T08:41:28.789Z,67.51
2022-10-26T08:44:00.270Z,67.54
2022-10-26T08:46:33.646Z,67.95
2022-10-26T08:49:10.097Z,68.34
2022-10-26T08:51:42.485Z,68.64
2022-10-26T08:54:15.678Z,68.89
2022-10-26T08:56:50.082Z,69.83
2022-10-26T08:59:31.043Z,69.64
2022-10-26T09:02:01.887Z,69.07
2022-10-26T09:04:34.082Z,69.55
2022-10-26T09:07:14.024Z,69.16
2022-10-26T09:09:51.974Z,69.27
2022-10-26T09:12:29.241Z,69.44
2022-10-26T09:15:12.178Z,69.57
2022-10-26T09:17:53.674Z,69.93
2022-10-26T09:20:46.165Z,69.69
2022-10-26T09:23:32.792Z,69.80
2022-10-26T09:26:03.983Z,69.61
2022-10-26T09:28:36.980Z,68.91
2022-10-26T09:31:06.401Z,68.69
2022-10-26T09:33:40.611Z,68.65
2022-10-26T09:36:16.098Z,68.26
2022-10-26T09:38:52.659Z,68.71
2022-10-26T09:41:29.579Z,69.18
2022-10-26T09:44:05.585Z,70.34
2022-10-26T09:46:41.514Z,70.43
2022-10-26T09:49:13.845Z,70.61
2022-10-26T09:51:43.050Z,70.78
2022-10-26T09:54:17.756Z,71.18
2022-10-26T09:56:50.929Z,71.42
2022-10-26T09:59:23.882Z,71.81
2022-10-26T10:01:52.404Z,72.43
2022-10-26T10:04:24.054Z,73.49
2022-10-26T10:06:54.547Z,74.81
2022-10-26T10:09:25.320Z,75.60
2022-10-26T10:11:58.839Z,76.11
2022-10-26T10:14:32.459Z,76.97
2022-10-26T10:17:04.592Z,77.76
2022-10-26T10:19:35.586Z,78.38
2022-10-26T10:22:13.157Z,78.79
2022-10-26T10:24:44.679Z,78.96
2022-10-26T10:27:19.440Z,78.97
2022-10-26T10:29:49.875Z,79.53
2022-10-26T10:32:20.727Z,79.50
2022-10-26T10:34:49.991Z,79.50
2022-10-26T10:37:28.375Z,78.86
2022-10-26T10:40:01.893Z,78.79
2022-10-26T10:42:35.217Z,78.42
2022-10-26T10:45:05.998Z,77.94
2022-10-26T10:47:37.118Z,76.76
2022-10-26T10:50:12.905Z,76.91
2022-10-26T10:52:41.375Z,76.87
2022-10-26T10:55:19.707Z,77.07
2022-10-26T10:58:09.367Z,76.83
2022-10-26T11:00:38.898Z,75.60
2022-10-26T11:04:07.663Z,75.30
2022-10-26T11:06:37.816Z,74.99
2022-10-26T11:09:10.335Z,73.51
2022-10-26T11:11:46.013Z,73.26
2022-10-26T11:14:18.404Z,72.44
2022-10-26T11:16:50.507Z,71.92
2022-10-26T11:19:23.786Z,71.87
2022-10-26T11:21:55.728Z,71.66
2022-10-26T11:24:29.828Z,71.23
2022-10-26T11:27:07.906Z,72.00
2022-10-26T11:29:48.671Z,72.39
2022-10-26T11:32:22.641Z,71.77
2022-10-26T11:34:58.004Z,72.48
2022-10-26T11:37:37.576Z,72.52
2022-10-26T11:40:24.293Z,72.63
2022-10-26T11:43:06.808Z,72.32
2022-10-26T11:45:41.032Z,71.69
2022-10-26T11:48:19.414Z,72.02
2022-10-26T11:50:52.616Z,70.62
2022-10-26T11:53:26.128Z,70.99
2022-10-26T11:55:56.134Z,70.71
2022-10-26T11:58:28.614Z,70.58
2022-10-26T12:01:03.690Z,70.18
2022-10-26T12:03:37.892Z,69.78
2022-10-26T12:06:06.639Z,69.57
2022-10-26T12:08:39.958Z,69.25
2022-10-26T12:11:18.627Z,69.38
2022-10-26T12:13:55.364Z,69.19
2022-10-26T12:16:44.099Z,69.20
2022-10-26T12:19:19.867Z,69.47
2022-10-26T12:21:50.598Z,70.32
2022-10-26T12:24:35.273Z,69.82
2022-10-26T12:27:06.320Z,70.51
2022-10-26T12:29:50.186Z,70.50
2022-10-26T12:32:52.477Z,70.63
2022-10-26T12:35:36.721Z,69.73
2022-10-26T12:38:57.293Z,69.00
2022-10-26T12:41:29.533Z,69.56
2022-10-26T12:43:59.366Z,68.94
2022-10-26T12:46:45.437Z,68.47
2022-10-26T12:50:04.240Z,68.76
2022-10-26T12:52:43.963Z,67.93
2022-10-26T12:55:56.318Z,67.99
2022-10-26T12:59:21.929Z,68.08
2022-10-26T13:02:27.238Z,67.80
2022-10-26T13:05:41.662Z,67.29
2022-10-26T13:08:13.027Z,67.70
2022-10-26T13:11:01.515Z,67.27
2022-10-26T13:13:32.675Z,66.73
2022-10-26T13:16:03.994Z,66.85
2022-10-26T13:18:43.725Z,66.48
2022-10-26T13:21:15.069Z,66.48
2022-10-26T13:23:46.779Z,67.14
2022-10-26T13:26:18.294Z,66.40
2022-10-26T13:28:51.090Z,65.61
2022-10-26T13:31:59.134Z,65.17
2022-10-26T13:34:32.033Z,65.54
2022-10-26T13:37:16.628Z,65.16
2022-10-26T13:39:49.118Z,65.26
2022-10-26T13:42:21.274Z,65.92
2022-10-26T13:44:55.076Z,66.08
2022-10-26T13:47:30.251Z,65.51
2022-10-26T13:50:05.799Z,65.98
2022-10-26T13:52:37.724Z,66.15
2022-10-26T13:55:14.290Z,65.99
2022-10-26T13:57:46.378Z,65.97
2022-10-26T14:00:20.952Z,66.58
2022-10-26T14:02:49.771Z,66.98
2022-10-26T14:05:20.656Z,67.29
2022-10-26T14:07:52.735Z,67.90
2022-10-26T14:10:29.076Z,68.10
2022-10-26T14:12:57.421Z,68.45
2022-10-26T14:15:28.627Z,68.55
2022-10-26T14:17:57.862Z,68.68
2022-10-26T14:20:29.300Z,68.99
2022-10-26T14:22:57.819Z,69.13
2022-10-26T14:25:41.718Z,69.12
2022-10-26T14:28:24.349Z,69.79
2022-10-26T14:30:52.736Z,69.93
2022-10-26T14:33:25.231Z,70.05
2022-10-26T14:35:55.705Z,70.20
2022-10-26T14:38:27.508Z,69.92
2022-10-26T14:40:57.561Z,70.31
2022-10-26T14:43:28.021Z,70.45
2022-10-26T14:45:57.296Z,70.65
2022-10-26T14:48:30.045Z,70.83
2022-10-26T14:51:12.295Z,70.60
2022-10-26T14:53:42.199Z,71.08
2022-10-26T14:56:23.995Z,71.22
2022-10-26T14:58:53.152Z,71.45
2022-10-26T15:01:35.767Z,72.08
2022-10-26T15:04:07.053Z,71.97
2022-10-26T15:06:47.511Z,72.28
2022-10-26T15:09:39.017Z,71.99
2022-10-26T15:12:09.523Z,72.19
2022-10-26T15:14:38.007Z,72.32
2022-10-26T15:17:06.329Z,72.36
2022-10-26T15:19:35.345Z,72.57
2022-10-26T15:22:05.007Z,72.40
2022-10-26T15:24:38.796Z,72.63
2022-10-26T15:27:16.254Z,72.78
2022-10-26T15:29:47.012Z,72.90
2022-10-26T15:32:28.599Z,73.16
2022-10-26T15:35:25.063Z,73.47
2022-10-26T15:37:56.865Z,73.58
2022-10-26T15:40:26.935Z,73.45
2022-10-26T15:42:56.459Z,73.54
2022-10-26T15:45:27.064Z,73.58
2022-10-26T15:47:58.210Z,73.52
2022-10-26T15:50:29.089Z,73.22
2022-10-26T15:53:17.673Z,73.10
2022-10-26T15:55:46.072Z,73.10
2022-10-26T15:58:14.731Z,73.11
2022-10-26T16:00:43.039Z,72.86
2022-10-26T16:03:15.659Z,72.65
2022-10-26T16:05:44.075Z,72.69
2022-10-26T16:08:18.045Z,72.83
2022-10-26T16:10:48.128Z,72.59
2022-10-26T16:13:17.006Z,72.61
2022-10-26T16:15:45.699Z,72.88
2022-10-26T16:18:14.410Z,73.08
2022-10-26T16:20:46.546Z,73.43
2022-10-26T16:23:16.421Z,73.49
2022-10-26T16:25:46.936Z,73.97
2022-10-26T16:28:18.057Z,74.09
2022-10-26T16:30:46.374Z,74.42
2022-10-26T16:33:14.786Z,74.59
2022-10-26T16:35:43.096Z,74.70
2022-10-26T16:38:11.341Z,74.73
2022-10-26T16:40:43.204Z,74.82
2022-10-26T16:43:11.698Z,74.73
2022-10-26T16:45:42.025Z,75.04
2022-10-26T16:48:14.868Z,75.19
2022-10-26T16:50:43.250Z,75.13
2022-10-26T16:53:11.437Z,75.20
2022-10-26T16:58:09.531Z,75.54
2022-10-26T17:00:38.549Z,75.55
2022-10-26T17:03:06.872Z,75.31
2022-10-26T17:05:35.094Z,75.47
2022-10-26T17:08:03.389Z,75.37
2022-10-26T17:10:31.751Z,75.47
2022-10-26T17:13:01.342Z,75.53
2022-10-26T17:15:29.595Z,75.37
2022-10-26T17:17:58.118Z,75.37
2022-10-26T17:20:26.428Z,75.43
2022-10-26T17:22:54.692Z,75.49
2022-10-26T17:25:22.965Z,75.65
2022-10-26T17:27:51.221Z,75.52
2022-10-26T17:30:20.962Z,75.52
2022-10-26T17:32:49.581Z,75.58
2022-10-26T17:35:18.951Z,75.59
2022-10-26T17:37:47.563Z,75.61
2022-10-26T17:40:16.054Z,75.46
2022-10-26T17:42:44.351Z,75.20
2022-10-26T17:45:13.130Z,75.20
2022-10-26T17:47:42.807Z,74.95
2022-10-26T17:50:11.427Z,74.73
2022-10-26T17:52:39.737Z,74.65
2022-10-26T17:55:08.826Z,74.36
2022-10-26T17:57:37.210Z,74.02
2022-10-26T18:00:06.794Z,74.10
2022-10-26T18:02:42.293Z,74.24
2022-10-26T18:05:11.773Z,74.35
2022-10-26T18:07:40.045Z,74.60
2022-10-26T18:10:32.865Z,74.91
2022-10-26T18:12:57.620Z,75.02
2022-10-26T18:15:26.030Z,75.48
2022-10-26T18:17:58.394Z,76.15
2022-10-26T18:20:28.223Z,76.32
2022-10-26T18:22:57.778Z,76.54
2022-10-26T18:25:26.372Z,76.53
2022-10-26T18:27:54.953Z,76.80
2022-10-26T18:30:23.674Z,77.14
2022-10-26T18:32:53.377Z,77.14
2022-10-26T18:35:24.257Z,77.03
2022-10-26T18:37:52.969Z,77.19
2022-10-26T18:40:21.550Z,77.11
2022-10-26T18:42:49.914Z,77.10
2022-10-26T18:45:18.338Z,76.95
2022-10-26T18:47:46.691Z,76.76
2022-10-26T18:50:15.135Z,76.77
2022-10-26T18:52:44.767Z,76.36
2022-10-26T18:55:13.023Z,76.28
2022-10-26T18:57:41.471Z,76.10
2022-10-26T19:00:11.580Z,75.86
2022-10-26T19:02:39.963Z,75.91
2022-10-26T19:05:09.431Z,75.95
2022-10-26T19:07:39.146Z,75.94
2022-10-26T19:10:10.764Z,75.81
2022-10-26T19:12:39.086Z,76.14
2022-10-26T19:15:08.691Z,76.02
2022-10-26T19:17:36.985Z,76.22
2022-10-26T19:20:06.809Z,76.34
2022-10-26T19:22:35.028Z,76.24
2022-10-26T19:25:03.929Z,76.27
2022-10-26T19:27:33.540Z,76.48
2022-10-26T19:30:01.883Z,76.73
2022-10-26T19:32:30.366Z,76.87
2022-10-26T19:34:58.649Z,76.96
2022-10-26T19:37:28.467Z,77.06
2022-10-26T19:39:57.146Z,77.01
2022-10-26T19:42:25.404Z,77.14
2022-10-26T19:44:55.095Z,77.02
2022-10-26T19:47:23.964Z,76.82
2022-10-26T19:49:52.285Z,76.70
2022-10-26T19:52:20.591Z,76.39
2022-10-26T19:54:48.819Z,76.42
2022-10-26T19:57:17.128Z,76.57
2022-10-26T19:59:45.298Z,76.71
2022-10-26T20:02:15.105Z,77.01
2022-10-26T20:04:43.367Z,77.13
2022-10-26T20:07:11.813Z,77.20
2022-10-26T20:09:40.033Z,77.34
2022-10-26T20:12:12.538Z,77.56
2022-10-26T20:14:40.931Z,78.24
2022-10-26T20:17:09.222Z,78.45
2022-10-26T20:19:39.008Z,78.87
2022-10-26T20:22:07.322Z,79.05
2022-10-26T20:24:35.573Z,79.23
2022-10-26T20:27:03.859Z,79.13
2022-10-26T20:29:32.110Z,78.79
2022-10-26T20:32:00.379Z,78.78
2022-10-26T20:37:03.318Z,78.50
2022-10-26T20:39:32.332Z,78.62
2022-10-26T20:42:01.364Z,78.53
2022-10-26T20:44:34.447Z,78.56
2022-10-26T20:47:03.351Z,78.39
2022-10-26T20:49:32.389Z,78.19
2022-10-26T20:52:20.682Z,78.09
2022-10-26T20:54:56.704Z,78.10
2022-10-26T20:57:32.003Z,78.08
2022-10-26T21:00:05.502Z,78.09
2022-10-26T21:02:33.788Z,78.24
2022-10-26T21:05:02.052Z,78.41
2022-10-26T21:07:31.666Z,78.39
2022-10-26T21:09:59.944Z,78.23
2022-10-26T21:12:28.180Z,78.40
2022-10-26T21:14:56.425Z,78.16
2022-10-26T21:17:24.996Z,78.40
2022-10-26T21:19:53.146Z,78.36
2022-10-26T21:22:21.446Z,78.38
2022-10-26T21:24:51.126Z,78.51
2022-10-26T21:27:19.491Z,78.65
2022-10-26T21:29:47.796Z,78.56
2022-10-26T21:32:16.058Z,78.60
2022-10-26T21:34:44.244Z,78.68
2022-10-26T21:37:12.486Z,78.75
2022-10-26T21:39:40.876Z,78.90
2022-10-26T21:42:10.531Z,78.99
2022-10-26T21:44:41.244Z,79.12
2022-10-26T21:47:10.676Z,79.67
2022-10-26T21:49:38.980Z,80.05
2022-10-26T21:52:08.440Z,80.90
2022-10-26T21:54:36.684Z,81.68
2022-10-26T21:57:05.088Z,82.10
2022-10-26T21:59:34.662Z,82.87
2022-10-26T22:02:03.095Z,83.68
2022-10-26T22:04:31.534Z,84.44
2022-10-26T22:06:59.775Z,84.59
2022-10-26T22:09:28.033Z,84.47
2022-10-26T22:11:56.372Z,84.38
2022-10-26T22:14:24.716Z,84.09
2022-10-26T22:16:54.340Z,84.04
2022-10-26T22:19:22.742Z,83.95
2022-10-26T22:21:50.979Z,83.91
2022-10-26T22:24:19.180Z,83.70
2022-10-26T22:26:47.515Z,83.51
2022-10-26T22:29:15.742Z,83.29
2022-10-26T22:31:44.007Z,83.20
2022-10-26T22:34:17.498Z,83.29
2022-10-26T22:36:45.789Z,83.33
2022-10-26T22:39:14.284Z,83.29
2022-10-26T22:41:42.534Z,83.40
2022-10-26T22:44:10.889Z,83.48
2022-10-26T22:46:39.281Z,83.20
2022-10-26T22:49:07.562Z,83.02
2022-10-26T22:51:37.227Z,82.80
2022-10-26T22:54:06.672Z,82.54
2022-10-26T22:56:37.128Z,82.33
2022-10-26T22:59:06.289Z,82.28
2022-10-26T23:01:39.388Z,82.62
2022-10-26T23:04:07.758Z,83.22
2022-10-26T23:06:37.316Z,83.30
2022-10-26T23:09:06.394Z,83.53
2022-10-26T23:11:34.876Z,84.55
2022-10-26T23:14:04.699Z,85.05
2022-10-26T23:16:33.785Z,86.13
2022-10-26T23:19:02.053Z,86.84
2022-10-26T23:21:30.499Z,88.15
2022-10-26T23:24:00.088Z,89.79
2022-10-26T23:26:28.472Z,90.73
2022-10-26T23:28:56.962Z,90.51
2022-10-26T23:31:27.521Z,91.06
2022-10-26T23:33:57.637Z,91.40
2022-10-26T23:36:26.604Z,91.65
2022-10-26T23:38:54.884Z,91.93
2022-10-26T23:41:24.479Z,91.67
2022-10-26T23:43:52.691Z,91.54
2022-10-26T23:46:20.915Z,91.46
2022-10-26T23:48:49.137Z,91.71
2022-10-26T23:51:17.362Z,91.50
2022-10-26T23:53:45.602Z,91.06
2022-10-26T23:56:13.798Z,90.63
2022-10-26T23:58:43.404Z,90.07
